Time;durP1;ratioP1;P1;durP2;ratioP2;P2;SDS_P1;SDS_P2;PMS_P1;PMS_P2;Temp;Humidity;BMP_temperature;BMP_pressure;BME280_temperature;BME280_humidity;BME280_pressure;Samples;Min_cycle;Max_cycle;Signal;HPM_P1;HPM_P2
2023/06/28 00:01:10;;;;;;;;;4.25;4.00;;;;;21.67;46.41;101303.97;5094635;27;45660;-79
2023/06/28 00:03:35;;;;;;;;;3.75;3.75;;;;;21.64;46.41;101296.31;5094500;27;45505;-77
2023/06/28 00:06:03;;;;;;;;;5.00;5.00;;;;;21.53;46.25;101277.13;5092913;27;46325;-81
2023/06/28 00:08:28;;;;;;;;;4.00;4.00;;;;;21.56;46.20;101282.94;5093644;27;45482;-77
2023/06/28 00:10:55;;;;;;;;;3.25;3.25;;;;;21.54;46.52;101289.47;5094308;27;45633;-80
2023/06/28 00:13:20;;;;;;;;;4.75;3.75;;;;;21.46;46.38;101279.59;5094111;27;45650;-80
2023/06/28 00:15:46;;;;;;;;;3.75;3.25;;;;;21.52;46.60;101289.59;5093942;27;46384;-79
2023/06/28 00:18:11;;;;;;;;;4.50;4.50;;;;;21.45;46.56;101285.06;5095462;27;46180;-79
2023/06/28 00:20:37;;;;;;;;;3.75;2.50;;;;;21.46;46.32;101290.25;5100939;27;46045;-79
2023/06/28 00:23:03;;;;;;;;;6.75;4.50;;;;;21.33;46.37;101264.06;5106259;27;45955;-77
2023/06/28 00:28:50;;;;;;;;;5.25;4.50;;;;;21.44;45.62;101291.41;5093622;27;45902;-80
2023/06/28 00:31:15;;;;;;;;;5.75;4.50;;;;;21.41;46.03;101279.25;5094019;27;45575;-81
2023/06/28 00:33:41;;;;;;;;;8.25;7.25;;;;;21.42;46.11;101285.41;5093963;27;45597;-79
2023/06/28 00:36:06;;;;;;;;;11.75;9.25;;;;;21.40;46.26;101276.75;5093611;27;47106;-79
2023/06/28 00:38:32;;;;;;;;;12.75;11.00;;;;;21.24;46.49;101262.38;5093528;27;47101;-78
2023/06/28 00:44:20;;;;;;;;;9.50;8.25;;;;;21.35;46.25;101277.22;5093708;27;45608;-79
2023/06/28 00:46:48;;;;;;;;;7.00;7.00;;;;;21.38;46.42;101284.09;5094001;27;46333;-79
2023/06/28 00:49:14;;;;;;;;;8.25;8.25;;;;;21.38;46.38;101278.75;5094503;27;46438;-80
2023/06/28 00:51:40;;;;;;;;;8.00;6.75;;;;;21.34;46.26;101262.22;5095426;27;45562;-79
2023/06/28 00:54:05;;;;;;;;;8.25;7.75;;;;;21.24;46.20;101253.53;5095525;27;45587;-79
2023/06/28 00:56:31;;;;;;;;;5.25;5.25;;;;;21.33;46.34;101271.22;5093825;27;45591;-80
2023/06/28 00:58:57;;;;;;;;;6.50;6.00;;;;;21.23;46.68;101255.38;5093389;27;45709;-78
2023/06/28 01:01:23;;;;;;;;;8.00;7.00;;;;;21.29;46.51;101270.72;5093445;27;45659;-80
2023/06/28 01:03:50;;;;;;;;;11.50;10.00;;;;;21.28;46.52;101266.38;5093109;27;45769;-81
2023/06/28 01:06:17;;;;;;;;;12.00;9.75;;;;;21.26;46.65;101268.38;5093181;27;46357;-80
2023/06/28 01:08:45;;;;;;;;;8.00;8.00;;;;;21.27;46.49;101266.53;5092775;27;46318;-79
2023/06/28 01:14:32;;;;;;;;;7.75;7.75;;;;;21.25;46.50;101260.53;5084127;27;45870;-79
2023/06/28 01:16:57;;;;;;;;;8.50;7.75;;;;;21.30;46.55;101274.22;5096035;27;47563;-80
2023/06/28 01:19:29;;;;;;;;;11.75;10.75;;;;;21.31;46.54;101267.91;5092362;27;47127;-80
2023/06/28 01:21:57;;;;;;;;;11.00;10.25;;;;;21.30;46.59;101263.56;5096230;27;45678;-79
2023/06/28 01:24:24;;;;;;;;;9.75;9.25;;;;;21.26;46.87;101254.22;5097219;27;45596;-80
2023/06/28 01:30:14;;;;;;;;;12.50;10.00;;;;;21.26;46.55;101262.22;5097307;27;46058;-79
2023/06/28 01:32:39;;;;;;;;;11.50;11.00;;;;;21.23;46.27;101263.34;5096876;27;45754;-79
2023/06/28 01:35:05;;;;;;;;;10.50;10.50;;;;;21.19;46.49;101254.03;5096332;27;45672;-77
2023/06/28 01:37:31;;;;;;;;;7.50;7.25;;;;;21.13;46.83;101254.63;5096090;27;47793;-79
2023/06/28 01:39:57;;;;;;;;;11.25;8.25;;;;;21.11;46.88;101253.13;5096462;27;45707;-79
2023/06/28 01:42:23;;;;;;;;;5.25;4.75;;;;;21.16;46.68;101261.53;5096499;27;45624;-78
2023/06/28 01:44:48;;;;;;;;;7.00;6.25;;;;;21.15;46.72;101262.50;5094845;27;45862;-78
2023/06/28 01:47:13;;;;;;;;;8.50;7.50;;;;;21.10;46.95;101259.47;5096284;27;46273;-79
2023/06/28 01:49:39;;;;;;;;;7.00;7.00;;;;;21.12;46.72;101265.44;5094541;27;48506;-78
2023/06/28 01:52:05;;;;;;;;;13.25;9.75;;;;;21.09;46.65;101260.47;5096190;27;45546;-77
2023/06/28 01:54:32;;;;;;;;;8.00;8.00;;;;;21.08;46.74;101259.63;5094804;27;45459;-77
2023/06/28 02:00:19;;;;;;;;;10.50;9.25;;;;;21.02;46.93;101248.75;5095753;27;45973;-76
2023/06/28 02:02:46;;;;;;;;;13.50;12.25;;;;;21.02;46.89;101257.59;5095883;27;45640;-78
2023/06/28 02:05:11;;;;;;;;;12.00;11.25;;;;;21.03;46.85;101255.75;5094528;27;45560;-78
2023/06/28 02:07:37;;;;;;;;;5.00;4.50;;;;;20.97;46.96;101243.91;5096165;27;46396;-79
2023/06/28 02:10:03;;;;;;;;;13.25;13.00;;;;;21.05;46.74;101249.28;5096674;27;46199;-79
2023/06/28 02:15:50;;;;;;;;;9.75;9.50;;;;;21.04;46.59;101252.94;5084597;27;45792;-79
2023/06/28 02:18:17;;;;;;;;;9.50;7.75;;;;;21.05;46.60;101251.13;5095850;27;46576;-79
2023/06/28 02:20:43;;;;;;;;;9.00;7.50;;;;;20.94;46.53;101229.06;5095956;27;46127;-77
2023/06/28 02:23:09;;;;;;;;;9.50;8.00;;;;;21.03;46.51;101251.28;5096037;27;45761;-77
2023/06/28 02:25:35;;;;;;;;;8.00;7.25;;;;;21.06;46.15;101256.28;5095810;27;45818;-79
2023/06/28 02:28:00;;;;;;;;;8.75;7.50;;;;;21.05;46.17;101245.78;5095893;27;45655;-80
2023/06/28 02:30:25;;;;;;;;;7.50;7.00;;;;;21.03;46.24;101251.28;5095450;27;45660;-79
2023/06/28 02:32:51;;;;;;;;;6.75;5.50;;;;;21.01;46.27;101245.25;5095846;27;45721;-79
2023/06/28 02:35:16;;;;;;;;;7.00;6.50;;;;;20.99;45.89;101241.09;5095856;27;45702;-79
2023/06/28 02:37:41;;;;;;;;;7.00;6.50;;;;;20.98;45.86;101242.09;5095252;27;46566;-80
2023/06/28 02:40:09;;;;;;;;;5.25;5.25;;;;;20.92;45.93;101233.75;5095707;27;45699;-79
2023/06/28 02:45:56;;;;;;;;;6.75;5.75;;;;;20.91;45.71;101237.41;5095404;27;45752;-80
2023/06/28 02:48:22;;;;;;;;;5.00;4.25;;;;;20.83;46.04;101232.06;5095917;27;45593;-81
2023/06/28 02:50:47;;;;;;;;;7.00;5.75;;;;;20.80;45.81;101223.53;5095512;27;45614;-80
2023/06/28 02:53:12;;;;;;;;;4.75;4.25;;;;;20.87;45.76;101236.06;5095443;27;45673;-80
2023/06/28 02:55:38;;;;;;;;;7.25;7.25;;;;;20.86;45.70;101229.06;5095499;27;45598;-80
2023/06/28 03:01:25;;;;;;;;;7.00;5.25;;;;;20.85;45.63;101234.53;5095516;27;45864;-81
2023/06/28 03:03:51;;;;;;;;;9.00;5.50;;;;;20.83;45.52;101232.06;5095940;27;45589;-78
2023/06/28 03:06:16;;;;;;;;;6.75;6.50;;;;;20.84;45.34;101233.69;5099516;27;45813;-78
2023/06/28 03:08:42;;;;;;;;;6.25;5.00;;;;;20.83;45.43;101226.72;5098239;27;46497;-79
2023/06/28 03:11:07;;;;;;;;;6.00;5.25;;;;;20.90;45.31;101232.22;5095226;27;46939;-81
2023/06/28 03:13:33;;;;;;;;;4.00;3.00;;;;;20.89;45.42;101242.03;5096583;27;45736;-80
2023/06/28 03:15:59;;;;;;;;;5.00;4.25;;;;;20.89;45.16;101239.38;5096496;27;45855;-79
2023/06/28 03:18:24;;;;;;;;;5.25;4.50;;;;;20.78;45.06;101218.34;5096774;27;46427;-79
2023/06/28 03:20:50;;;;;;;;;4.50;4.50;;;;;20.80;44.80;101220.88;5095013;27;45598;-79
2023/06/28 03:23:15;;;;;;;;;8.00;8.00;;;;;20.60;44.88;101188.34;5096293;27;45497;-78
2023/06/28 03:25:40;;;;;;;;;9.00;8.25;;;;;20.86;44.99;101239.72;5095105;27;45498;-80
2023/06/28 03:31:27;;;;;;;;;9.25;8.00;;;;;20.82;44.91;101232.22;5094438;27;45572;-80
2023/06/28 03:33:52;;;;;;;;;8.00;7.50;;;;;20.82;44.96;101235.72;5094550;27;45471;-79
2023/06/28 03:36:19;;;;;;;;;9.00;8.00;;;;;20.80;44.67;101229.69;5094486;27;45817;-79
2023/06/28 03:38:44;;;;;;;;;10.25;9.50;;;;;20.79;44.89;101227.19;5094474;27;46481;-79
2023/06/28 03:41:09;;;;;;;;;9.00;7.00;;;;;20.81;44.63;101227.88;5094527;27;45591;-80
2023/06/28 03:46:56;;;;;;;;;10.50;8.00;;;;;20.72;44.37;101212.84;5094453;27;45600;-79
2023/06/28 03:49:21;;;;;;;;;12.25;10.75;;;;;20.78;45.00;101231.66;5109789;27;48862;-79
2023/06/28 03:51:47;;;;;;;;;11.50;11.25;;;;;20.73;45.37;101226.00;5094252;27;45593;-80
2023/06/28 03:54:13;;;;;;;;;9.25;7.75;;;;;20.77;45.17;101223.88;5093990;27;45566;-80
2023/06/28 03:56:39;;;;;;;;;8.50;7.75;;;;;20.65;45.17;101203.81;5094091;27;45663;-80
2023/06/28 03:59:04;;;;;;;;;7.50;7.00;;;;;20.76;45.80;101230.19;5094107;27;45601;-79
2023/06/28 04:01:30;;;;;;;;;7.00;6.50;;;;;20.70;45.66;101218.34;5094360;27;45706;-80
2023/06/28 04:03:55;;;;;;;;;7.75;6.25;;;;;20.73;45.87;101233.19;5093789;27;45788;-79
2023/06/28 04:06:21;;;;;;;;;9.00;7.00;;;;;20.71;46.14;101230.66;5109823;27;45798;-79
2023/06/28 04:08:47;;;;;;;;;7.00;6.50;;;;;20.64;46.26;101216.31;5093824;27;47378;-80
2023/06/28 04:11:12;;;;;;;;;5.00;5.00;;;;;20.60;46.75;101219.44;5093783;27;46605;-79
2023/06/28 04:16:59;;;;;;;;;7.75;5.75;;;;;20.60;46.69;101217.63;5082602;27;45646;-80
2023/06/28 04:19:24;;;;;;;;;7.75;7.75;;;;;20.63;46.79;101225.28;5093874;27;45674;-80
2023/06/28 04:21:50;;;;;;;;;9.75;7.75;;;;;20.66;46.94;101238.28;5093845;27;46176;-80
2023/06/28 04:24:15;;;;;;;;;6.50;6.00;;;;;20.65;46.71;101233.97;5093998;27;45480;-80
2023/06/28 04:26:41;;;;;;;;;9.75;7.75;;;;;20.40;46.75;101198.41;5093963;27;45515;-80
2023/06/28 04:32:28;;;;;;;;;7.75;7.00;;;;;20.63;46.90;101235.94;5093761;27;46022;-81
2023/06/28 04:34:58;;;;;;;;;5.75;5.75;;;;;20.55;46.94;101216.44;5093899;27;45534;-80
2023/06/28 04:37:27;;;;;;;;;7.75;7.25;;;;;20.65;47.24;101235.78;5094932;27;45643;-79
2023/06/28 04:40:00;;;;;;;;;6.00;5.25;;;;;20.63;46.81;101227.09;5094898;27;45621;-80
2023/06/28 04:42:25;;;;;;;;;2.50;2.25;;;;;20.64;46.80;101234.09;5094842;27;46452;-81
2023/06/28 04:44:51;;;;;;;;;7.00;5.50;;;;;20.56;46.86;101218.09;5095856;27;45595;-79
2023/06/28 04:47:17;;;;;;;;;7.00;6.00;;;;;20.63;47.09;101235.94;5093029;27;45591;-81
2023/06/28 04:49:46;;;;;;;;;5.75;5.50;;;;;20.63;46.49;101230.59;5094134;27;45623;-79
2023/06/28 04:52:13;;;;;;;;;7.00;5.25;;;;;20.59;46.55;101217.78;5094115;27;47158;-81
2023/06/28 04:54:39;;;;;;;;;6.75;5.75;;;;;20.64;46.35;101232.28;5095780;27;45646;-80
2023/06/28 04:57:04;;;;;;;;;4.50;4.50;;;;;20.56;46.11;101216.28;5098036;27;45732;-80
2023/06/28 05:02:51;;;;;;;;;2.25;2.00;;;;;20.56;46.10;101220.78;5096799;27;46038;-78
2023/06/28 05:05:17;;;;;;;;;4.25;3.25;;;;;20.59;45.89;101231.09;5096797;27;45596;-78
2023/06/28 05:07:43;;;;;;;;;5.00;3.50;;;;;20.53;45.89;101221.91;5097102;27;45916;-79
2023/06/28 05:10:09;;;;;;;;;6.25;5.25;;;;;20.53;46.42;101221.91;5096754;27;46356;-79
2023/06/28 05:12:34;;;;;;;;;6.25;5.00;;;;;20.58;46.56;101230.25;5096632;27;46429;-79
2023/06/28 05:15:00;;;;;;;;;4.00;4.00;;;;;20.56;46.26;101212.78;5096571;27;45615;-80
2023/06/28 05:17:25;;;;;;;;;4.00;4.00;;;;;20.61;46.55;101221.13;5096726;27;45731;-78
2023/06/28 05:19:50;;;;;;;;;4.00;3.00;;;;;20.62;46.26;101218.28;5097085;27;46414;-78
2023/06/28 05:22:16;;;;;;;;;4.00;4.00;;;;;20.64;46.51;101221.63;5097067;27;46222;-77
2023/06/28 05:24:41;;;;;;;;;4.00;3.00;;;;;20.62;47.08;101220.94;5097009;27;45581;-80
2023/06/28 05:27:06;;;;;;;;;4.00;3.25;;;;;20.63;46.75;101219.97;5097133;27;45625;-80
2023/06/28 05:32:54;;;;;;;;;4.75;4.00;;;;;20.63;46.65;101216.44;5096484;27;45921;-77
2023/06/28 05:35:19;;;;;;;;;4.50;3.00;;;;;20.52;46.90;101196.28;5096000;27;45683;-77
2023/06/28 05:37:44;;;;;;;;;6.25;5.00;;;;;20.58;46.67;101211.63;5096011;27;45761;-76
2023/06/28 05:40:10;;;;;;;;;4.25;4.00;;;;;20.43;46.85;101187.41;5094342;27;49094;-76
2023/06/28 05:42:37;;;;;;;;;3.00;3.00;;;;;20.31;47.05;101159.41;5094370;27;47131;-76
2023/06/28 05:48:24;;;;;;;;;2.25;2.25;;;;;20.53;47.07;101197.94;5095747;27;45638;-77
2023/06/28 05:50:49;;;;;;;;;5.00;4.00;;;;;20.60;47.26;101212.31;5095698;27;46510;-77
2023/06/28 05:53:14;;;;;;;;;4.00;3.50;;;;;20.57;47.36;101209.94;5095539;27;47027;-77
2023/06/28 05:55:40;;;;;;;;;6.25;6.00;;;;;20.63;47.45;101217.28;5095869;27;45640;-76
2023/06/28 05:58:06;;;;;;;;;4.00;4.00;;;;;20.69;47.46;101210.50;5095796;27;45761;-77
2023/06/28 06:00:31;;;;;;;;;4.00;4.00;;;;;20.71;47.41;101213.84;5111654;27;46598;-75
2023/06/28 06:02:56;;;;;;;;;6.50;5.25;;;;;20.59;47.14;101194.66;5095686;27;45560;-75
2023/06/28 06:05:23;;;;;;;;;4.00;4.00;;;;;20.72;47.11;101202.22;5095100;27;45549;-77
2023/06/28 06:07:48;;;;;;;;;4.00;4.00;;;;;20.76;47.59;101207.03;5095608;27;45530;-78
2023/06/28 06:10:14;;;;;;;;;4.50;4.25;;;;;20.54;47.53;101162.34;5095377;27;46210;-77
2023/06/28 06:12:39;;;;;;;;;6.50;5.50;;;;;20.53;47.45;101160.66;5095807;27;46294;-76
2023/06/28 06:18:26;;;;;;;;;5.00;4.00;;;;;20.92;47.54;101215.09;5083915;27;45704;-77
2023/06/28 06:20:52;;;;;;;;;5.50;4.75;;;;;20.91;47.61;101205.44;5095770;27;46806;-77
2023/06/28 06:23:20;;;;;;;;;5.25;4.75;;;;;20.83;47.57;101194.75;5095223;27;46903;-77
2023/06/28 06:25:45;;;;;;;;;7.00;4.25;;;;;21.01;47.55;101218.63;5095490;27;45545;-76
2023/06/28 06:28:11;;;;;;;;;5.25;4.50;;;;;21.02;47.75;101209.63;5095529;27;45563;-78
2023/06/28 06:34:01;;;;;;;;;4.50;4.50;;;;;21.04;47.53;101212.16;5094871;27;45602;-76
2023/06/28 06:36:27;;;;;;;;;7.25;6.50;;;;;20.99;47.68;101201.13;5095236;27;45577;-76
2023/06/28 06:38:54;;;;;;;;;6.00;4.00;;;;;21.04;47.50;101212.16;5095283;27;45927;-77
2023/06/28 06:41:21;;;;;;;;;4.00;3.75;;;;;20.95;47.33;101192.63;5095130;27;46554;-77
2023/06/28 06:43:46;;;;;;;;;5.50;5.00;;;;;21.12;47.30;101217.47;5095119;27;46396;-77
2023/06/28 06:46:11;;;;;;;;;5.00;3.25;;;;;21.13;47.62;101227.16;5095263;27;45650;-77
2023/06/28 06:48:37;;;;;;;;;7.00;4.00;;;;;21.07;47.84;101217.13;5095392;27;45811;-77
2023/06/28 06:51:04;;;;;;;;;4.00;3.00;;;;;21.14;47.76;101224.38;5095057;27;45712;-74
2023/06/28 06:53:29;;;;;;;;;5.00;5.00;;;;;21.12;47.20;101220.16;5094822;27;46011;-77
2023/06/28 06:55:55;;;;;;;;;3.00;3.00;;;;;21.11;48.08;101229.97;5095014;27;45647;-75
2023/06/28 06:58:22;;;;;;;;;4.00;4.00;;;;;21.11;48.30;101229.97;5094323;27;45442;-76
2023/06/28 07:04:10;;;;;;;;;4.00;4.00;;;;;21.12;48.25;101236.13;5094327;27;45651;-75
2023/06/28 07:06:35;;;;;;;;;5.00;4.00;;;;;21.10;48.56;101219.50;5094899;27;45533;-74
2023/06/28 07:09:01;;;;;;;;;6.50;5.00;;;;;21.13;48.23;101233.31;5094649;27;45580;-72
2023/06/28 07:11:27;;;;;;;;;4.25;3.75;;;;;21.11;48.26;101227.31;5094360;27;46829;-76
2023/06/28 07:13:52;;;;;;;;;5.00;4.00;;;;;21.12;48.51;101220.97;5094394;27;47311;-75
2023/06/28 07:19:39;;;;;;;;;2.50;2.50;;;;;21.18;48.48;101223.03;5083018;27;45853;-75
2023/06/28 07:22:04;;;;;;;;;6.00;4.75;;;;;21.23;48.22;101219.88;5094589;27;45930;-76
2023/06/28 07:24:30;;;;;;;;;6.00;5.75;;;;;21.27;48.60;101221.22;5094302;27;45698;-75
2023/06/28 07:26:55;;;;;;;;;5.75;5.00;;;;;21.27;48.62;101223.88;5092705;27;45499;-75
2023/06/28 07:29:20;;;;;;;;;5.00;4.50;;;;;21.28;48.40;101218.38;5094556;27;45740;-76
2023/06/28 07:31:46;;;;;;;;;5.25;5.25;;;;;21.41;48.31;101235.75;5093637;27;45658;-75
2023/06/28 07:34:11;;;;;;;;;10.00;6.25;;;;;21.37;48.70;101227.25;5092179;27;45946;-76
2023/06/28 07:36:37;;;;;;;;;6.50;6.50;;;;;21.46;48.44;101238.75;5093817;27;45560;-76
2023/06/28 07:39:02;;;;;;;;;6.50;6.25;;;;;21.37;48.08;101221.94;5094616;27;45648;-75
2023/06/28 07:41:28;;;;;;;;;7.50;4.50;;;;;21.34;48.30;101220.41;5109929;27;47388;-75
2023/06/28 07:43:53;;;;;;;;;5.25;5.25;;;;;21.53;48.15;101248.63;5093792;27;46817;-74
2023/06/28 07:49:40;;;;;;;;;5.00;4.00;;;;;21.55;48.04;101225.25;5094053;27;45552;-75
2023/06/28 07:52:07;;;;;;;;;7.75;6.50;;;;;21.61;47.64;101240.59;5093833;27;46963;-75
2023/06/28 07:54:32;;;;;;;;;5.50;4.50;;;;;21.60;47.76;101224.75;5093744;27;46376;-75
2023/06/28 07:56:57;;;;;;;;;5.50;5.00;;;;;21.64;47.88;101234.97;5094079;27;45706;-75
2023/06/28 07:59:23;;;;;;;;;7.50;5.75;;;;;21.69;47.49;101227.31;5093688;27;45706;-74
2023/06/28 08:05:09;;;;;;;;;7.75;6.75;;;;;21.76;47.22;101214.09;5093860;27;45907;-75
2023/06/28 08:07:35;;;;;;;;;7.00;5.50;;;;;21.81;47.44;101218.97;5093944;27;45443;-74
2023/06/28 08:10:00;;;;;;;;;8.00;5.75;;;;;21.81;47.19;101211.78;5092318;27;45611;-76
2023/06/28 08:12:26;;;;;;;;;4.25;4.25;;;;;21.90;47.49;101212.63;5093588;27;46236;-74
2023/06/28 08:14:52;;;;;;;;;7.25;5.25;;;;;21.93;47.31;101220.28;5093309;27;45914;-75
2023/06/28 08:17:17;;;;;;;;;5.75;4.25;;;;;21.88;47.19;101211.94;5093885;27;45557;-74
2023/06/28 08:19:42;;;;;;;;;5.00;5.00;;;;;21.92;46.96;101202.59;5093138;27;45724;-77
2023/06/28 08:22:08;;;;;;;;;6.00;5.25;;;;;21.99;47.17;101220.47;5093654;27;45601;-77
2023/06/28 08:24:33;;;;;;;;;6.25;5.00;;;;;22.05;46.84;101214.47;5093744;27;46021;-74
2023/06/28 08:26:58;;;;;;;;;6.50;6.00;;;;;22.09;47.04;101226.47;5093629;27;45574;-77
2023/06/28 08:29:24;;;;;;;;;4.75;4.00;;;;;22.12;47.43;101228.81;5095336;27;45753;-77
2023/06/28 08:35:11;;;;;;;;;5.50;4.75;;;;;22.14;47.02;101210.78;5096823;27;45863;-73
2023/06/28 08:37:36;;;;;;;;;7.00;5.00;;;;;22.16;47.21;101203.44;5096922;27;45656;-75
2023/06/28 08:40:04;;;;;;;;;6.00;5.00;;;;;22.23;47.37;101197.44;5097019;27;45550;-76
2023/06/28 08:42:33;;;;;;;;;6.75;5.50;;;;;22.21;46.81;101199.44;5112517;27;48547;-76
2023/06/28 08:45:01;;;;;;;;;6.00;5.25;;;;;22.25;47.00;101203.41;5096797;27;45951;-75
2023/06/28 08:50:49;;;;;;;;;6.25;4.50;;;;;22.29;46.73;101189.59;5097123;27;45616;-77
2023/06/28 08:53:19;;;;;;;;;6.75;5.75;;;;;22.35;46.53;101212.91;5096302;27;46719;-74
2023/06/28 08:55:46;;;;;;;;;6.75;6.25;;;;;22.37;46.48;101205.56;5096653;27;46346;-75
2023/06/28 08:58:12;;;;;;;;;6.50;5.25;;;;;22.42;46.94;101202.38;5096079;27;45681;-76
2023/06/28 09:00:41;;;;;;;;;6.25;6.25;;;;;22.43;46.85;101207.56;5096736;27;45794;-76
2023/06/28 09:03:08;;;;;;;;;7.75;6.75;;;;;22.44;46.87;101205.72;5096180;27;46333;-76
2023/06/28 09:05:34;;;;;;;;;7.25;6.00;;;;;22.45;46.82;101205.56;5095476;27;46162;-77
2023/06/28 09:08:00;;;;;;;;;8.50;6.00;;;;;22.46;46.55;101198.34;5096697;27;45647;-77
2023/06/28 09:10:26;;;;;;;;;5.25;5.00;;;;;22.47;46.09;101195.50;5095346;27;45610;-78
2023/06/28 09:12:52;;;;;;;;;6.00;4.50;;;;;22.48;45.98;101193.69;5096404;27;47556;-75
2023/06/28 09:15:20;;;;;;;;;2.75;1.00;;;;;22.50;46.42;101192.53;5093213;27;46220;-77
2023/06/28 09:21:07;;;;;;;;;5.75;5.25;;;;;22.66;46.05;101196.97;5085624;27;45658;-76
2023/06/28 09:23:33;;;;;;;;;6.75;6.00;;;;;22.70;45.71;101208.13;5093957;27;46226;-77
2023/06/28 09:26:00;;;;;;;;;7.50;6.50;;;;;22.73;45.77;101202.47;5094023;27;45994;-77
2023/06/28 09:28:33;;;;;;;;;8.00;6.00;;;;;22.69;45.33;101191.25;5095632;27;45786;-77
2023/06/28 09:31:00;;;;;;;;;7.50;7.00;;;;;22.81;45.50;101197.94;5096165;27;45451;-78
2023/06/28 09:33:26;;;;;;;;;7.75;7.25;;;;;22.80;45.58;101187.41;5095502;27;45917;-77
2023/06/28 09:35:58;;;;;;;;;10.75;8.00;;;;;22.89;45.40;101191.69;5093875;27;47410;-77
2023/06/28 09:38:27;;;;;;;;;7.00;6.25;;;;;22.85;44.99;101177.84;5094658;27;45651;-78
2023/06/28 09:40:55;;;;;;;;;9.00;8.00;;;;;22.97;44.90;101202.34;5095364;27;45475;-78
2023/06/28 09:43:21;;;;;;;;;10.50;8.25;;;;;23.00;45.05;101193.97;5095841;27;46220;-78
2023/06/28 09:45:47;;;;;;;;;9.75;7.00;;;;;23.01;45.62;101196.47;5094443;27;46827;-78
2023/06/28 09:48:14;;;;;;;;;12.00;9.00;;;;;23.03;45.00;101185.63;5094035;27;45763;-77
2023/06/28 09:50:44;;;;;;;;;10.25;9.75;;;;;23.08;45.42;101183.25;5096653;27;45798;-76
2023/06/28 09:53:16;;;;;;;;;7.25;7.00;;;;;23.11;45.61;101176.72;5094181;27;46611;-75
2023/06/28 09:55:47;;;;;;;;;11.75;9.00;;;;;23.15;45.34;101175.38;5094693;27;46260;-78
2023/06/28 09:58:23;;;;;;;;;6.25;5.00;;;;;23.20;45.09;101170.31;5095863;27;45508;-76
2023/06/28 10:00:50;;;;;;;;;8.00;6.75;;;;;23.25;44.91;101168.78;5097097;27;45552;-77
2023/06/28 10:06:38;;;;;;;;;8.75;7.50;;;;;23.29;45.17;101151.38;5095456;27;45985;-78
2023/06/28 10:09:04;;;;;;;;;6.00;5.00;;;;;23.35;45.09;101155.16;5095292;27;45583;-76
2023/06/28 10:11:32;;;;;;;;;11.50;9.25;;;;;23.43;44.92;101152.41;5095477;27;45565;-77
2023/06/28 10:13:59;;;;;;;;;11.75;10.25;;;;;23.45;44.75;101150.41;5095120;27;46661;-76
2023/06/28 10:16:30;;;;;;;;;13.25;11.50;;;;;23.46;44.85;101159.28;5095436;27;46138;-77
2023/06/28 10:18:55;;;;;;;;;13.25;12.00;;;;;23.51;44.26;101156.91;5095402;27;45614;-77
2023/06/28 10:21:21;;;;;;;;;11.00;10.50;;;;;23.54;44.93;101156.53;5094547;27;45546;-78
2023/06/28 10:23:47;;;;;;;;;13.25;12.50;;;;;23.59;44.58;101151.50;5095198;27;45564;-78
2023/06/28 10:26:14;;;;;;;;;11.50;11.50;;;;;23.64;44.18;101157.97;5095606;27;45790;-78
2023/06/28 10:28:40;;;;;;;;;10.50;9.00;;;;;23.55;44.17;101121.59;5095309;27;45549;-77
2023/06/28 10:31:07;;;;;;;;;12.75;11.00;;;;;23.65;44.59;101124.00;5095198;27;45651;-77
2023/06/28 10:36:56;;;;;;;;;11.75;10.75;;;;;23.66;44.43;101121.16;5094696;27;45932;-79
2023/06/28 10:39:22;;;;;;;;;15.50;13.00;;;;;23.71;44.37;101129.47;5095177;27;45698;-78
2023/06/28 10:41:55;;;;;;;;;11.00;11.00;;;;;23.85;44.53;101151.94;5092688;27;45806;-78
2023/06/28 10:44:20;;;;;;;;;12.25;11.00;;;;;23.83;44.27;101143.25;5094857;27;47296;-78
2023/06/28 10:46:46;;;;;;;;;13.75;12.50;;;;;23.89;44.01;101142.53;5094714;27;46172;-78
2023/06/28 10:49:11;;;;;;;;;12.25;11.50;;;;;23.94;43.85;101141.97;5094983;27;45692;-76
2023/06/28 10:51:36;;;;;;;;;16.00;13.00;;;;;23.94;44.08;101137.44;5095150;27;45714;-78
2023/06/28 10:54:07;;;;;;;;;15.25;12.25;;;;;23.93;43.76;101133.09;5094854;27;45588;-78
2023/06/28 10:56:49;;;;;;;;;16.25;13.00;;;;;24.10;43.39;101133.75;5094361;27;46233;-78
2023/06/28 10:59:17;;;;;;;;;14.50;13.00;;;;;24.15;43.44;101152.78;5094843;27;45535;-78
2023/06/28 11:01:48;;;;;;;;;16.25;13.25;;;;;24.18;43.70;101144.44;5094771;27;45451;-76
2023/06/28 11:04:22;;;;;;;;;12.25;11.25;;;;;24.20;43.76;101140.53;5094742;27;46783;-77
2023/06/28 11:07:08;;;;;;;;;15.00;14.50;;;;;24.24;43.18;101136.47;5094514;27;45986;-79
2023/06/28 11:09:34;;;;;;;;;17.00;13.75;;;;;24.31;43.11;101131.22;5094278;27;45523;-79
2023/06/28 11:12:00;;;;;;;;;12.00;10.25;;;;;24.31;43.44;101120.50;5094677;27;45618;-79
2023/06/28 11:14:30;;;;;;;;;16.00;14.25;;;;;24.42;43.34;101129.91;5094189;27;45589;-78
2023/06/28 11:17:06;;;;;;;;;18.50;15.00;;;;;24.49;43.29;101128.16;5094272;27;45741;-79
2023/06/28 11:19:31;;;;;;;;;22.50;21.00;;;;;24.41;43.27;101099.59;5094674;27;45578;-79
2023/06/28 11:22:01;;;;;;;;;16.00;13.00;;;;;24.56;43.02;101105.75;5094773;27;45530;-78
2023/06/28 11:24:47;;;;;;;;;14.75;11.50;;;;;24.69;43.05;101118.50;5094290;27;46225;-79
2023/06/28 11:27:14;;;;;;;;;12.75;12.00;;;;;24.70;42.85;101112.13;5093770;27;45421;-78
2023/06/28 11:30:00;;;;;;;;;15.00;11.00;;;;;24.80;42.59;101104.59;5094386;27;45665;-77
2023/06/28 11:32:31;;;;;;;;;14.00;13.00;;;;;24.76;42.59;101097.13;5094221;27;45552;-78
2023/06/28 11:34:58;;;;;;;;;17.00;15.00;;;;;24.90;42.26;101126.59;5094292;27;45685;-78
2023/06/28 11:37:25;;;;;;;;;16.50;14.50;;;;;24.94;42.28;101125.19;5094146;27;46004;-78
2023/06/28 11:39:50;;;;;;;;;16.00;16.00;;;;;24.92;42.10;101110.34;5094269;27;45670;-78
2023/06/28 11:42:17;;;;;;;;;20.50;16.25;;;;;24.99;42.04;101112.06;5094416;27;45729;-78
2023/06/28 11:44:47;;;;;;;;;18.00;14.00;;;;;25.03;41.77;101112.53;5094084;27;45668;-78
2023/06/28 11:47:15;;;;;;;;;19.25;16.25;;;;;25.07;41.75;101109.25;5093999;27;46188;-78
2023/06/28 11:49:41;;;;;;;;;15.25;14.50;;;;;25.12;41.52;101108.69;5094175;27;45748;-78
2023/06/28 11:52:08;;;;;;;;;14.00;13.25;;;;;25.15;41.44;101099.44;5094545;27;45623;-78
2023/06/28 11:54:34;;;;;;;;;16.25;12.00;;;;;25.23;41.63;101104.66;5094062;27;45700;-77
2023/06/28 11:57:00;;;;;;;;;16.00;14.25;;;;;25.26;41.62;101096.25;5094042;27;46017;-77
2023/06/28 11:59:26;;;;;;;;;15.75;14.75;;;;;25.31;41.51;101088.44;5094295;27;45653;-78
2023/06/28 12:02:06;;;;;;;;;16.75;14.75;;;;;25.40;41.66;101082.75;5094505;27;45567;-78
2023/06/28 12:07:56;;;;;;;;;15.50;14.75;;;;;25.48;41.23;101082.56;5093896;27;45667;-78
2023/06/28 12:10:22;;;;;;;;;15.25;14.25;;;;;25.61;40.78;101091.78;5094142;27;45542;-78
2023/06/28 12:12:47;;;;;;;;;14.75;14.00;;;;;25.67;40.99;101096.38;5093979;27;45676;-77
2023/06/28 12:15:14;;;;;;;;;14.50;13.00;;;;;25.73;40.81;101087.56;5094017;27;45865;-78
2023/06/28 12:17:40;;;;;;;;;15.00;13.00;;;;;25.80;40.77;101089.25;5093677;27;46397;-78
2023/06/28 12:20:07;;;;;;;;;13.25;12.75;;;;;25.74;40.84;101067.75;5093858;27;45611;-79
2023/06/28 12:22:44;;;;;;;;;14.00;13.25;;;;;25.94;40.63;101086.66;5093890;27;45766;-79
2023/06/28 12:25:10;;;;;;;;;11.25;10.00;;;;;25.95;40.71;101086.47;5093720;27;45628;-78
2023/06/28 12:27:38;;;;;;;;;11.00;11.00;;;;;25.88;40.42;101064.94;5093479;27;46627;-79
2023/06/28 12:30:14;;;;;;;;;12.25;10.00;;;;;25.92;40.52;101068.03;5093542;27;45755;-79
2023/06/28 12:32:46;;;;;;;;;12.75;12.25;;;;;26.02;40.22;101084.63;5093711;27;45871;-78
2023/06/28 12:35:25;;;;;;;;;12.25;9.25;;;;;26.01;40.28;101063.34;5093635;27;45615;-79
2023/06/28 12:37:57;;;;;;;;;11.00;10.75;;;;;26.09;39.93;101077.44;5093789;27;46577;-79
2023/06/28 12:40:28;;;;;;;;;11.00;10.00;;;;;26.12;40.27;101068.16;5093885;27;45565;-78
2023/06/28 12:43:14;;;;;;;;;12.75;11.00;;;;;26.12;40.05;101063.63;5093667;27;45666;-79
2023/06/28 12:45:46;;;;;;;;;10.50;10.00;;;;;26.19;39.57;101077.06;5093476;27;45611;-78
2023/06/28 12:48:15;;;;;;;;;12.00;11.25;;;;;26.14;39.86;101058.88;5093545;27;46080;-77
2023/06/28 12:50:41;;;;;;;;;11.25;10.00;;;;;26.19;39.70;101069.84;5093609;27;45550;-79